St Paul Island Airport
PASN : now visible

Aeroporto :











RITROVATECI SU...

 
LOGIN :

Iscrizione | Disclaimer

   EN    FR    IT 

 









Sommario :    VFR   VFR Marginale   IFR   IFR Intensivo   IFR Molto Intensivo
Visibilità : 
Base nubi : 
>= 8 km
>= 3000ft
5 / 8 km
1000 / 3000 ft
1500m / 5 km
500 / 1000 ft
800 / 1500m
200 / 500 ft
< 800m
< 200 ft
Simboli :   Temporali  Nebbia  Neve Forte  Precipitazioni Forti  Vento > 20 kt






- Altitudine del aeroporto : 63 ft
- Codice IATA : SNP


PASN - St Paul Island

ULTIMO METAR :
  • 011953Z AUTO 05017G25KT 9SM CLR 10/05 A2943 RMK SLP965 T01000050 PWINO TSNO $ VIA AUTODIAL

METARs OBSOLETI :
  • 011853Z AUTO 04019KT 9SM CLR 09/05 A2942 RMK SLP962 T00890050 PWINO TSNO $ VIA AUTODIAL
  • 011753Z AUTO 04016G22KT 10SM CLR 08/05 A2941 RMK SLP958 T00830050 10083 20056 53013 PWINO TSNO $ VIA AUTODIAL
  • 011653Z AUTO 04016KT 10SM CLR 07/04 A2939 RMK SLP953 T00720044 PWINO TSNO $ VIA AUTODIAL

TAF PASN
Valido dal 01 a 18 ore il 02 a 18 ore UTC


011739Z 0118/0218 03015KT P6SM BKN110
FIR PAZA / America del Nord



MetMap, La meteo Aeronautica in un colpo d'occhio ! - Copyright ORBIFLY Dicembre 2007 - Disclaimer

ORBIFLY MET'MAP TEAM :

Programmazione e sviluppo : Alexandra Zaïnal
Concezione : Baudouin d'Aumeries
Aiuto per la programmazione : Marc-Olivier Méhu
Supporto tecnico e logistico : Manuel Goepfert
Aiuto per la traduzione : Arnaldo La Scala

Contatto : metmap@orbifly.com




FONTI E CREDITI :

   NOAA       Earth
Advisory